createdAt,value
2023-10-09T00:03:39.518Z,2.00
2023-10-09T00:08:45.781Z,2.35
2023-10-09T00:13:58.599Z,2.60
2023-10-09T00:19:31.286Z,2.47
2023-10-09T00:24:34.128Z,2.70
2023-10-09T00:29:39.475Z,2.63
2023-10-09T00:34:41.442Z,2.13
2023-10-09T00:39:49.526Z,2.33
2023-10-09T00:44:51.265Z,2.47
2023-10-09T00:50:00.633Z,2.13
2023-10-09T00:55:27.548Z,2.00
2023-10-09T01:05:59.569Z,1.80
2023-10-09T01:11:10.861Z,1.92
2023-10-09T01:16:18.388Z,1.98
2023-10-09T01:26:27.160Z,2.40
2023-10-09T01:31:35.089Z,3.05
2023-10-09T01:36:40.177Z,3.78
2023-10-09T01:41:47.891Z,3.08
2023-10-09T01:46:49.799Z,3.10
2023-10-09T01:51:51.638Z,3.75
2023-10-09T01:56:54.837Z,2.50
2023-10-09T02:01:59.574Z,2.17
2023-10-09T02:07:01.135Z,2.45
2023-10-09T02:12:03.423Z,2.90
2023-10-09T02:17:10.448Z,2.67
2023-10-09T02:22:15.002Z,2.65
2023-10-09T02:27:39.293Z,2.28
2023-10-09T02:32:41.258Z,2.13
2023-10-09T02:37:43.152Z,2.90
2023-10-09T02:42:44.694Z,2.63
2023-10-09T02:47:49.458Z,2.10
2023-10-09T02:53:00.124Z,2.67
2023-10-09T02:58:09.052Z,2.13
2023-10-09T03:03:10.761Z,2.60
2023-10-09T03:08:13.440Z,2.92
2023-10-09T03:13:20.351Z,2.40
2023-10-09T03:18:23.512Z,2.47
2023-10-09T03:23:25.044Z,2.13
2023-10-09T03:28:27.393Z,3.08
2023-10-09T03:33:28.967Z,2.45
2023-10-09T03:38:35.476Z,2.78
2023-10-09T03:43:42.153Z,2.25
2023-10-09T03:48:46.367Z,3.33
2023-10-09T03:53:52.045Z,3.40
2023-10-09T03:58:54.365Z,3.40
2023-10-09T04:04:04.403Z,2.00
2023-10-09T04:09:20.286Z,2.50
2023-10-09T04:14:33.364Z,2.83
2023-10-09T04:19:49.441Z,2.53
2023-10-09T04:24:52.503Z,2.70
2023-10-09T04:29:55.522Z,1.75
2023-10-09T04:35:16.996Z,3.55
2023-10-09T04:40:38.033Z,2.78
2023-10-09T04:45:45.420Z,2.10
2023-10-09T04:51:09.645Z,2.13
2023-10-09T04:56:16.838Z,3.10
2023-10-09T05:01:37.153Z,2.38
2023-10-09T05:06:55.733Z,2.88
2023-10-09T05:12:10.732Z,2.90
2023-10-09T05:17:17.006Z,2.10
2023-10-09T05:22:31.518Z,3.70
2023-10-09T05:27:51.956Z,3.03
2023-10-09T05:33:21.094Z,3.65
2023-10-09T05:38:26.189Z,3.67
2023-10-09T05:43:46.471Z,4.03
2023-10-09T05:48:55.542Z,3.83
2023-10-09T05:54:13.115Z,3.85
2023-10-09T05:59:33.320Z,2.95
2023-10-09T06:04:50.779Z,2.60
2023-10-09T06:09:56.635Z,4.15
2023-10-09T06:15:20.601Z,3.10
2023-10-09T06:20:40.508Z,3.47
2023-10-09T06:25:52.077Z,4.75
2023-10-09T06:30:53.588Z,5.13
2023-10-09T06:35:55.089Z,5.20
2023-10-09T06:41:05.588Z,5.63
2023-10-09T06:46:38.191Z,5.20
2023-10-09T06:57:10.203Z,2.60
2023-10-09T07:02:27.032Z,6.03
2023-10-09T07:07:28.607Z,4.35
2023-10-09T07:12:33.863Z,4.68
2023-10-09T07:17:35.484Z,5.15
2023-10-09T07:22:57.622Z,3.63
2023-10-09T07:28:01.050Z,3.70
2023-10-09T07:33:14.135Z,3.10
2023-10-09T07:38:24.325Z,4.90
2023-10-09T07:43:36.740Z,5.28
2023-10-09T07:48:49.898Z,3.97
2023-10-09T07:53:58.214Z,5.07
2023-10-09T07:59:01.449Z,6.35
2023-10-09T08:04:12.026Z,8.40
2023-10-09T08:09:19.764Z,6.10
2023-10-09T08:14:36.580Z,6.78
2023-10-09T08:19:59.330Z,8.55
2023-10-09T08:25:03.545Z,5.88
2023-10-09T08:30:26.922Z,8.50
2023-10-09T08:35:35.208Z,8.52
2023-10-09T08:40:42.980Z,6.43
2023-10-09T08:45:54.424Z,7.70
2023-10-09T08:50:57.146Z,8.95
2023-10-09T08:55:58.795Z,7.68
2023-10-09T09:01:01.910Z,8.32
2023-10-09T09:06:03.968Z,5.68
2023-10-09T09:11:24.135Z,7.55
2023-10-09T09:16:32.934Z,7.43
2023-10-09T09:21:41.998Z,10.05
2023-10-09T09:26:47.785Z,7.22
2023-10-09T09:31:58.985Z,5.53
2023-10-09T09:37:04.719Z,5.63
2023-10-09T09:42:15.316Z,7.53
2023-10-09T09:47:29.220Z,5.60
2023-10-09T09:52:39.564Z,7.20
2023-10-09T09:57:42.184Z,6.63
2023-10-09T10:02:46.431Z,5.85
2023-10-09T10:07:50.634Z,5.82
2023-10-09T10:13:01.316Z,5.50
2023-10-09T10:18:06.298Z,4.63
2023-10-09T10:23:20.994Z,5.47
2023-10-09T10:28:40.350Z,5.10
2023-10-09T10:33:57.056Z,4.78
2023-10-09T10:39:06.108Z,5.85
2023-10-09T10:44:26.324Z,6.57
2023-10-09T10:49:37.713Z,5.35
2023-10-09T10:54:39.341Z,5.88
2023-10-09T10:59:42.824Z,5.93
2023-10-09T11:04:54.670Z,6.82
2023-10-09T11:10:06.395Z,5.93
2023-10-09T11:15:10.004Z,5.75
2023-10-09T11:20:33.403Z,7.50
2023-10-09T11:25:35.377Z,6.40
2023-10-09T11:30:37.268Z,7.50
2023-10-09T11:35:38.834Z,8.02
2023-10-09T11:41:07.408Z,7.75
2023-10-09T11:46:12.524Z,7.13
2023-10-09T11:51:20.747Z,6.95
2023-10-09T11:56:28.186Z,5.32
2023-10-09T12:01:36.443Z,7.78
2023-10-09T12:06:38.295Z,8.80
2023-10-09T12:11:54.060Z,8.45
2023-10-09T12:17:06.808Z,8.85
2023-10-09T12:22:17.203Z,6.82
2023-10-09T12:27:21.294Z,6.65
2023-10-09T12:32:22.856Z,8.65
2023-10-09T12:37:24.350Z,7.50
2023-10-09T12:42:25.925Z,8.85
2023-10-09T12:47:27.772Z,9.13
2023-10-09T12:52:31.087Z,8.80
2023-10-09T12:57:32.837Z,7.63
2023-10-09T13:02:35.068Z,5.82
2023-10-09T13:07:36.787Z,8.77
2023-10-09T13:12:44.284Z,8.00
2023-10-09T13:22:50.855Z,8.73
2023-10-09T13:27:52.439Z,9.18
2023-10-09T13:32:54.047Z,8.38
2023-10-09T13:37:55.620Z,8.07
2023-10-09T13:42:59.916Z,5.40
2023-10-09T13:48:04.226Z,7.13
2023-10-09T13:53:11.804Z,6.28
2023-10-09T13:58:15.369Z,4.65
2023-10-09T14:03:20.989Z,4.97
2023-10-09T14:08:27.420Z,4.35
2023-10-09T14:13:30.044Z,4.68
2023-10-09T14:18:32.098Z,4.13
2023-10-09T14:23:35.733Z,6.15
2023-10-09T14:28:38.477Z,3.65
2023-10-09T14:33:41.551Z,4.28
2023-10-09T14:38:43.496Z,5.45
2023-10-09T14:43:45.072Z,5.18
2023-10-09T14:48:47.215Z,5.65
2023-10-09T14:53:50.561Z,5.13
2023-10-09T14:58:52.525Z,4.15
2023-10-09T15:03:56.415Z,5.50
2023-10-09T15:09:09.110Z,5.88
2023-10-09T15:14:10.761Z,4.63
2023-10-09T15:19:12.632Z,4.47
2023-10-09T15:24:20.552Z,6.78
2023-10-09T15:29:24.829Z,4.60
2023-10-09T15:34:28.424Z,5.00
2023-10-09T15:39:29.957Z,5.00
2023-10-09T15:44:34.848Z,3.95
2023-10-09T15:49:42.479Z,5.43
2023-10-09T15:54:44.478Z,3.80
2023-10-09T15:59:46.341Z,5.07
2023-10-09T16:04:47.897Z,4.38
2023-10-09T16:09:50.218Z,5.60
2023-10-09T16:14:51.806Z,7.28
2023-10-09T16:19:53.373Z,8.10
2023-10-09T16:25:00.572Z,7.57
2023-10-09T16:30:06.630Z,6.10
2023-10-09T16:35:11.037Z,6.53
2023-10-09T16:40:14.268Z,5.10
2023-10-09T16:45:18.425Z,5.32
2023-10-09T16:50:20.742Z,5.97
2023-10-09T16:55:22.988Z,5.43
2023-10-09T17:00:30.917Z,4.65
2023-10-09T17:05:37.447Z,3.28
2023-10-09T17:10:46.344Z,3.33
2023-10-09T17:15:54.199Z,4.72
2023-10-09T17:20:56.254Z,3.85
2023-10-09T17:26:03.832Z,4.30
2023-10-09T17:31:05.610Z,4.05
2023-10-09T17:36:07.798Z,4.40
2023-10-09T17:41:09.998Z,7.15
2023-10-09T17:46:13.057Z,6.18
2023-10-09T17:51:15.895Z,4.50
2023-10-09T17:56:19.639Z,3.80
2023-10-09T18:01:25.701Z,4.82
2023-10-09T18:06:27.690Z,6.00
2023-10-09T18:11:29.654Z,5.78
2023-10-09T18:16:31.244Z,5.10
2023-10-09T18:21:36.873Z,5.28
2023-10-09T18:26:38.412Z,6.57
2023-10-09T18:31:41.958Z,5.45
2023-10-09T18:36:43.524Z,6.05
2023-10-09T18:41:45.753Z,6.97
2023-10-09T18:46:51.169Z,8.88
2023-10-09T18:51:52.809Z,6.28
2023-10-09T18:56:54.439Z,5.15
2023-10-09T19:01:56.606Z,6.43
2023-10-09T19:06:59.104Z,5.35
2023-10-09T19:12:00.673Z,4.57
2023-10-09T19:17:02.323Z,7.22
2023-10-09T19:22:04.215Z,7.35
2023-10-09T19:27:06.090Z,9.15
2023-10-09T19:32:08.945Z,8.43
2023-10-09T19:37:10.665Z,8.38
2023-10-09T19:42:13.066Z,10.02
2023-10-09T19:47:14.738Z,9.63
2023-10-09T19:52:18.702Z,10.85
2023-10-09T19:57:20.924Z,9.40
2023-10-09T20:02:22.672Z,8.98
2023-10-09T20:07:24.303Z,11.15
2023-10-09T20:12:30.904Z,9.05
2023-10-09T20:17:33.662Z,7.47
2023-10-09T20:22:36.436Z,4.78
2023-10-09T20:27:37.924Z,5.95
2023-10-09T20:32:41.269Z,5.53
2023-10-09T20:37:44.633Z,6.68
2023-10-09T20:42:48.490Z,8.07
2023-10-09T20:47:57.153Z,6.63
2023-10-09T20:52:59.938Z,6.13
2023-10-09T20:58:01.806Z,4.72
2023-10-09T21:03:07.184Z,7.28
2023-10-09T21:08:10.327Z,5.53
2023-10-09T21:13:11.884Z,11.32
2023-10-09T21:18:13.538Z,8.68
2023-10-09T21:23:15.470Z,9.75
2023-10-09T21:28:16.996Z,8.95
2023-10-09T21:33:18.548Z,11.07
2023-10-09T21:38:20.257Z,11.80
2023-10-09T21:43:21.800Z,12.95
2023-10-09T21:48:23.502Z,11.55
2023-10-09T21:53:25.103Z,13.43
2023-10-09T21:58:26.761Z,12.80
2023-10-09T22:03:28.431Z,10.77
2023-10-09T22:08:30.210Z,13.73
2023-10-09T22:13:31.743Z,14.70
2023-10-09T22:18:33.538Z,11.20
2023-10-09T22:23:36.677Z,9.38
2023-10-09T22:28:41.481Z,11.45
2023-10-09T22:33:46.913Z,13.65
2023-10-09T22:38:58.325Z,7.97
2023-10-09T22:44:00.666Z,12.98
2023-10-09T22:49:14.762Z,15.23
2023-10-09T22:54:24.105Z,12.68
2023-10-09T22:59:28.108Z,10.05
2023-10-09T23:04:37.990Z,10.52
2023-10-09T23:09:50.354Z,12.73
2023-10-09T23:14:56.281Z,9.30
2023-10-09T23:19:58.179Z,9.65
2023-10-09T23:25:09.731Z,10.23
2023-10-09T23:30:26.516Z,11.88
2023-10-09T23:35:45.105Z,11.68
2023-10-09T23:40:46.670Z,11.55
2023-10-09T23:45:48.549Z,11.40
2023-10-09T23:50:56.965Z,12.95
2023-10-09T23:56:09.375Z,9.70
